Time;durP1;ratioP1;P1;durP2;ratioP2;P2;SDS_P1;SDS_P2;PMS_P1;PMS_P2;Temp;Humidity;BMP_temperature;BMP_pressure;BME280_temperature;BME280_humidity;BME280_pressure;Samples;Min_cycle;Max_cycle;Signal;HPM_P1;HPM_P2
2022/09/23 00:02:23;;;;;;;20.30;14.67;;;4.60;99.90;;;;;;5115064;28;20550;-77
2022/09/23 00:04:50;;;;;;;16.07;14.30;;;4.60;99.90;;;;;;5115530;28;20255;-77
2022/09/23 00:07:16;;;;;;;17.70;15.57;;;4.60;99.90;;;;;;5114864;28;20247;-76
2022/09/23 00:09:45;;;;;;;19.10;14.47;;;4.50;99.90;;;;;;5115104;28;20789;-77
2022/09/23 00:12:12;;;;;;;17.07;15.03;;;4.50;99.90;;;;;;5115570;28;20207;-77
2022/09/23 00:14:39;;;;;;;17.43;14.33;;;4.50;99.90;;;;;;5115496;28;20222;-76
2022/09/23 00:17:06;;;;;;;18.47;15.43;;;4.50;99.90;;;;;;5115157;28;20204;-77
2022/09/23 00:19:34;;;;;;;19.80;15.33;;;4.50;99.90;;;;;;5114643;28;20205;-76
2022/09/23 00:22:00;;;;;;;16.40;14.63;;;4.50;99.90;;;;;;5114687;28;20278;-77
2022/09/23 00:24:31;;;;;;;19.43;15.60;;;4.40;99.90;;;;;;5114589;28;20251;-76
2022/09/23 00:26:59;;;;;;;19.47;15.07;;;4.40;99.90;;;;;;5114847;28;20256;-76
2022/09/23 00:29:26;;;;;;;18.83;15.53;;;4.30;99.90;;;;;;5115299;27;20649;-76
2022/09/23 00:31:53;;;;;;;16.30;14.57;;;4.20;99.90;;;;;;5115057;28;20562;-77
2022/09/23 00:34:20;;;;;;;18.50;16.00;;;4.10;99.90;;;;;;5115364;28;20225;-76
2022/09/23 00:36:46;;;;;;;17.97;15.10;;;4.20;99.90;;;;;;5115925;28;20198;-77
2022/09/23 00:39:13;;;;;;;16.87;14.07;;;4.20;99.90;;;;;;5115647;28;20252;-76
2022/09/23 00:41:40;;;;;;;17.30;15.47;;;4.10;99.90;;;;;;5116114;28;20213;-77
2022/09/23 00:44:40;;;;;;;17.53;15.00;;;4.10;99.90;;;;;;5115366;28;20731;-77
2022/09/23 00:47:14;;;;;;;18.23;16.10;;;4.20;99.90;;;;;;5116015;28;20268;-76
2022/09/23 00:49:41;;;;;;;23.20;16.70;;;4.00;99.90;;;;;;5115829;28;20197;-76
2022/09/23 00:52:12;;;;;;;18.97;15.53;;;4.00;99.90;;;;;;5116533;28;20197;-76
2022/09/23 00:54:40;;;;;;;17.67;15.43;;;4.10;99.90;;;;;;5116313;28;20232;-77
2022/09/23 00:57:07;;;;;;;18.67;15.30;;;4.10;99.90;;;;;;5116521;28;20195;-76
2022/09/23 00:59:34;;;;;;;19.70;15.60;;;4.00;99.90;;;;;;5117106;28;20195;-76
2022/09/23 01:02:03;;;;;;;21.73;16.20;;;4.10;99.90;;;;;;5117045;28;20246;-76
2022/09/23 01:04:31;;;;;;;19.00;16.30;;;4.20;99.90;;;;;;5116784;28;20616;-77
2022/09/23 01:06:58;;;;;;;18.57;14.63;;;4.20;99.90;;;;;;5116918;28;20644;-76
2022/09/23 01:09:25;;;;;;;18.70;16.07;;;4.20;99.90;;;;;;5117355;28;20196;-77
2022/09/23 01:12:01;;;;;;;17.87;15.50;;;4.10;99.90;;;;;;5120888;28;20619;-77
2022/09/23 01:14:37;;;;;;;18.40;16.23;;;4.00;99.90;;;;;;5123581;28;20259;-77
2022/09/23 01:17:09;;;;;;;26.67;15.77;;;4.00;99.90;;;;;;5124229;28;20647;-77
2022/09/23 01:20:05;;;;;;;19.60;15.33;;;4.10;99.90;;;;;;5121206;28;20204;-78
2022/09/23 01:22:41;;;;;;;18.10;15.43;;;3.90;99.90;;;;;;5121684;28;20233;-78
2022/09/23 01:25:27;;;;;;;16.40;14.53;;;3.90;99.90;;;;;;5121659;28;20201;-78
2022/09/23 01:28:10;;;;;;;17.23;15.23;;;3.80;99.90;;;;;;5120379;27;20652;-78
2022/09/23 01:30:44;;;;;;;20.03;14.80;;;3.80;99.90;;;;;;5120046;28;20714;-78
2022/09/23 01:33:15;;;;;;;16.67;14.87;;;3.80;99.90;;;;;;5120971;28;20193;-78
2022/09/23 01:35:58;;;;;;;17.60;15.07;;;3.80;99.90;;;;;;5121979;28;20270;-78
2022/09/23 01:38:37;;;;;;;16.67;14.17;;;3.90;99.90;;;;;;5121208;28;20225;-78
2022/09/23 01:41:14;;;;;;;15.70;13.50;;;3.80;99.90;;;;;;5120065;28;20203;-78
2022/09/23 01:43:46;;;;;;;15.03;13.50;;;3.70;99.90;;;;;;5119892;28;20196;-78
2022/09/23 01:46:18;;;;;;;16.97;13.83;;;3.60;99.90;;;;;;5120307;27;20540;-78
2022/09/23 01:48:51;;;;;;;17.50;14.20;;;3.70;99.90;;;;;;5119977;28;20714;-78
2022/09/23 01:51:22;;;;;;;15.23;13.63;;;3.60;99.90;;;;;;5120626;28;20198;-78
2022/09/23 01:53:55;;;;;;;16.37;14.47;;;3.60;99.90;;;;;;5127021;28;20279;-78
2022/09/23 01:56:26;;;;;;;23.00;15.10;;;3.60;99.90;;;;;;5126450;28;20334;-79
2022/09/23 01:58:58;;;;;;;15.03;13.50;;;3.50;99.90;;;;;;5127556;28;20197;-78
2022/09/23 02:01:30;;;;;;;16.63;13.33;;;3.50;99.90;;;;;;5127120;28;20616;-78
2022/09/23 02:04:03;;;;;;;22.23;15.60;;;3.40;99.90;;;;;;5124315;28;20242;-79
2022/09/23 02:06:33;;;;;;;20.37;15.53;;;3.40;99.90;;;;;;5123599;28;20205;-78
2022/09/23 02:09:03;;;;;;;16.77;13.67;;;3.40;99.90;;;;;;5122130;28;20193;-78
2022/09/23 02:11:35;;;;;;;14.20;12.77;;;3.30;99.90;;;;;;5123344;27;20193;-78
2022/09/23 02:14:06;;;;;;;16.23;13.77;;;3.30;99.90;;;;;;5126922;28;20225;-78
2022/09/23 02:16:38;;;;;;;19.07;14.23;;;3.30;99.90;;;;;;5130065;27;20229;-77
2022/09/23 02:19:09;;;;;;;17.53;13.97;;;3.50;99.90;;;;;;5130238;28;20715;-79
2022/09/23 02:21:39;;;;;;;15.97;13.83;;;3.50;99.90;;;;;;5130370;28;20225;-78
2022/09/23 02:24:11;;;;;;;16.63;13.17;;;3.50;99.90;;;;;;5136562;28;20204;-78
2022/09/23 02:26:45;;;;;;;17.03;14.37;;;3.40;99.90;;;;;;5135405;27;20250;-78
2022/09/23 02:29:19;;;;;;;17.63;14.40;;;3.30;99.90;;;;;;5138269;28;20226;-78
2022/09/23 02:31:55;;;;;;;19.03;13.93;;;3.30;99.90;;;;;;5132214;27;20200;-78
2022/09/23 02:34:34;;;;;;;16.37;14.53;;;3.20;99.90;;;;;;5116846;28;20281;-78
2022/09/23 02:37:07;;;;;;;18.20;13.50;;;3.10;99.90;;;;;;5116946;28;20201;-78
2022/09/23 02:39:42;;;;;;;14.60;12.77;;;3.10;99.90;;;;;;5117281;28;20222;-78
2022/09/23 02:42:13;;;;;;;15.47;13.27;;;3.00;99.90;;;;;;5117278;28;20199;-78
2022/09/23 02:44:40;;;;;;;15.93;13.20;;;3.00;99.90;;;;;;5116741;28;20241;-78
2022/09/23 02:47:09;;;;;;;16.07;13.10;;;2.90;99.90;;;;;;5116876;28;20196;-79
2022/09/23 02:49:36;;;;;;;15.60;13.40;;;2.80;99.90;;;;;;5116489;28;20249;-78
2022/09/23 02:52:07;;;;;;;16.43;13.57;;;2.90;99.90;;;;;;5116286;28;20531;-78
2022/09/23 02:54:34;;;;;;;15.83;13.27;;;2.80;99.90;;;;;;5116297;27;20316;-78
2022/09/23 02:57:04;;;;;;;16.57;13.93;;;2.80;99.90;;;;;;5116410;28;20195;-78
2022/09/23 02:59:32;;;;;;;15.90;12.90;;;2.80;99.90;;;;;;5116530;28;20655;-79
2022/09/23 03:02:21;;;;;;;16.17;12.20;;;2.80;99.90;;;;;;5116755;28;20204;-78
2022/09/23 03:04:57;;;;;;;16.47;14.20;;;2.80;99.90;;;;;;5117266;28;20199;-78
2022/09/23 03:07:33;;;;;;;13.00;11.57;;;2.70;99.90;;;;;;5116796;28;20244;-78
2022/09/23 03:10:07;;;;;;;17.70;12.70;;;2.70;99.90;;;;;;5116629;28;20203;-78
2022/09/23 03:12:40;;;;;;;16.07;12.60;;;2.70;99.90;;;;;;5116164;28;20199;-77
2022/09/23 03:15:19;;;;;;;16.93;12.40;;;2.60;99.90;;;;;;5116242;28;20312;-78
2022/09/23 03:17:55;;;;;;;16.60;12.47;;;2.60;99.90;;;;;;5116715;28;20201;-78
2022/09/23 03:20:26;;;;;;;13.67;11.93;;;2.60;99.90;;;;;;5116134;28;20602;-78
2022/09/23 03:22:59;;;;;;;16.43;12.67;;;2.60;99.90;;;;;;5115669;28;20223;-78
2022/09/23 03:25:30;;;;;;;15.10;12.73;;;2.50;99.90;;;;;;5116209;28;20253;-79
2022/09/23 03:27:59;;;;;;;14.40;12.07;;;2.50;99.90;;;;;;5116375;28;20196;-78
2022/09/23 03:30:27;;;;;;;15.13;12.87;;;2.50;99.90;;;;;;5115709;28;20651;-78
2022/09/23 03:32:59;;;;;;;15.27;12.53;;;2.50;99.90;;;;;;5115932;28;20200;-79
2022/09/23 03:35:30;;;;;;;14.03;12.53;;;2.50;99.90;;;;;;5115704;28;20231;-78
2022/09/23 03:38:06;;;;;;;21.07;12.70;;;2.50;99.90;;;;;;5115990;28;20196;-78
2022/09/23 03:40:42;;;;;;;15.87;12.83;;;2.60;99.90;;;;;;5116021;28;20199;-78
2022/09/23 03:43:10;;;;;;;16.83;12.67;;;2.90;99.90;;;;;;5115460;28;20204;-78
2022/09/23 03:45:37;;;;;;;19.67;13.60;;;2.80;99.90;;;;;;5115517;28;20203;-79
2022/09/23 03:48:06;;;;;;;20.13;13.33;;;2.80;99.90;;;;;;5115697;28;20609;-78
2022/09/23 03:50:34;;;;;;;17.60;12.83;;;2.70;99.90;;;;;;5115677;28;20192;-78
2022/09/23 03:53:01;;;;;;;16.27;13.63;;;2.70;99.90;;;;;;5115587;28;20191;-79
2022/09/23 03:55:27;;;;;;;19.50;13.70;;;2.70;99.90;;;;;;5115443;28;20227;-78
2022/09/23 03:57:55;;;;;;;16.60;13.67;;;2.60;99.90;;;;;;5115618;28;20203;-78
2022/09/23 04:00:22;;;;;;;17.37;14.00;;;2.50;99.90;;;;;;5115492;28;20195;-78
2022/09/23 04:02:49;;;;;;;15.73;13.90;;;2.60;99.90;;;;;;5115722;28;20240;-78
2022/09/23 04:05:17;;;;;;;18.57;14.23;;;2.60;99.90;;;;;;5115678;28;20195;-79
2022/09/23 04:07:44;;;;;;;16.30;14.57;;;2.60;99.90;;;;;;5115808;28;20192;-78
2022/09/23 04:10:11;;;;;;;17.53;13.73;;;2.50;99.90;;;;;;5115438;28;20253;-78
2022/09/23 04:12:38;;;;;;;15.93;13.60;;;2.50;99.90;;;;;;5115426;28;20222;-79
2022/09/23 04:15:06;;;;;;;15.40;13.33;;;2.40;99.90;;;;;;5115198;28;20216;-79
2022/09/23 04:17:33;;;;;;;15.53;12.63;;;2.40;99.90;;;;;;5115439;28;20249;-78
2022/09/23 04:20:00;;;;;;;17.67;12.57;;;2.30;99.90;;;;;;5115297;28;20203;-79
2022/09/23 04:22:28;;;;;;;17.00;13.23;;;2.30;99.90;;;;;;5114789;28;20640;-78
2022/09/23 04:24:55;;;;;;;16.23;13.30;;;2.30;99.90;;;;;;5114730;28;20567;-78
2022/09/23 04:27:21;;;;;;;14.00;12.53;;;2.30;99.90;;;;;;5114934;28;20286;-79
2022/09/23 04:29:48;;;;;;;17.47;13.43;;;2.30;99.90;;;;;;5114604;28;20613;-78
2022/09/23 04:32:14;;;;;;;17.77;13.47;;;2.30;99.90;;;;;;5114946;28;20248;-78
2022/09/23 04:34:41;;;;;;;18.73;13.90;;;2.20;99.90;;;;;;5115113;28;20223;-79
2022/09/23 04:37:08;;;;;;;15.67;13.00;;;2.20;99.90;;;;;;5115182;28;20609;-79
2022/09/23 04:39:36;;;;;;;15.93;13.33;;;2.00;99.90;;;;;;5114986;28;20196;-78
2022/09/23 04:42:03;;;;;;;14.60;13.03;;;2.00;99.90;;;;;;5115167;28;20264;-78
2022/09/23 04:44:30;;;;;;;16.13;13.40;;;2.00;99.90;;;;;;5116436;28;20267;-79
2022/09/23 04:46:57;;;;;;;21.90;14.17;;;2.00;99.90;;;;;;5116774;28;20244;-78
2022/09/23 04:49:24;;;;;;;17.40;13.33;;;2.10;99.90;;;;;;5116331;28;20196;-78
2022/09/23 04:51:51;;;;;;;17.73;13.37;;;2.10;99.90;;;;;;5116409;27;20195;-78
2022/09/23 04:54:17;;;;;;;17.67;14.27;;;2.30;99.90;;;;;;5117373;28;20196;-79
2022/09/23 04:56:45;;;;;;;19.13;14.50;;;2.40;99.90;;;;;;5117228;28;20230;-79
2022/09/23 04:59:12;;;;;;;18.53;15.20;;;2.40;99.90;;;;;;5119834;28;20252;-78
2022/09/23 05:01:39;;;;;;;20.40;14.30;;;2.20;99.90;;;;;;5118044;28;20241;-78
2022/09/23 05:04:07;;;;;;;17.73;13.57;;;2.20;99.90;;;;;;5118499;28;20199;-79
2022/09/23 05:06:35;;;;;;;18.60;14.73;;;2.10;99.90;;;;;;5118334;28;20227;-78
2022/09/23 05:09:04;;;;;;;19.60;14.00;;;2.10;99.90;;;;;;5121597;28;20252;-79
2022/09/23 05:11:31;;;;;;;21.60;15.13;;;2.20;99.90;;;;;;5126079;28;20204;-79
2022/09/23 05:13:59;;;;;;;21.57;16.70;;;2.20;99.90;;;;;;5128169;28;20200;-79
2022/09/23 05:16:26;;;;;;;24.53;17.10;;;2.20;99.90;;;;;;5127251;28;20218;-78
2022/09/23 05:18:53;;;;;;;21.97;15.90;;;2.30;99.90;;;;;;5127245;28;20240;-80
2022/09/23 05:21:22;;;;;;;22.27;16.50;;;2.40;99.90;;;;;;5123753;28;20227;-79
2022/09/23 05:23:53;;;;;;;21.37;16.13;;;2.50;99.90;;;;;;5126581;28;20245;-79
2022/09/23 05:26:20;;;;;;;24.50;16.67;;;2.50;99.90;;;;;;5122575;28;20199;-80
2022/09/23 05:28:47;;;;;;;19.10;15.77;;;2.60;99.90;;;;;;5116656;28;20655;-79
2022/09/23 05:31:18;;;;;;;23.07;17.63;;;2.60;99.90;;;;;;5115695;28;20244;-79
2022/09/23 05:33:47;;;;;;;24.63;18.80;;;2.60;99.90;;;;;;5114986;28;20659;-79
2022/09/23 05:36:15;;;;;;;23.80;19.07;;;2.80;99.90;;;;;;5114568;28;20222;-78
2022/09/23 05:38:43;;;;;;;22.17;17.33;;;2.90;99.90;;;;;;5114682;28;20191;-78
2022/09/23 05:41:13;;;;;;;21.80;17.37;;;2.90;99.90;;;;;;5115026;28;20198;-78
2022/09/23 05:43:41;;;;;;;22.43;16.40;;;3.00;99.90;;;;;;5113392;28;20196;-78
2022/09/23 05:46:11;;;;;;;22.30;16.67;;;3.10;99.90;;;;;;5115257;28;20200;-78
2022/09/23 05:48:40;;;;;;;21.73;16.63;;;3.10;99.90;;;;;;5115104;28;20201;-78
2022/09/23 05:51:11;;;;;;;20.80;17.20;;;3.20;99.90;;;;;;5114749;28;20732;-78
2022/09/23 05:53:39;;;;;;;19.67;16.47;;;3.40;99.90;;;;;;5114511;28;20239;-79
2022/09/23 05:56:06;;;;;;;22.57;16.27;;;3.40;99.90;;;;;;5114744;28;20228;-77
2022/09/23 05:58:33;;;;;;;21.53;17.63;;;3.50;99.90;;;;;;5114786;28;20294;-78
2022/09/23 06:00:59;;;;;;;22.13;17.43;;;3.50;99.90;;;;;;5113985;28;20204;-78
2022/09/23 06:03:26;;;;;;;27.77;18.27;;;3.60;99.90;;;;;;5113617;28;20243;-78
2022/09/23 06:05:55;;;;;;;21.00;17.70;;;3.70;99.90;;;;;;5113923;28;20213;-79
2022/09/23 06:08:23;;;;;;;21.33;18.20;;;3.80;99.90;;;;;;5116804;28;20202;-78
2022/09/23 06:10:50;;;;;;;22.37;18.37;;;3.90;99.90;;;;;;5117254;28;20608;-78
2022/09/23 06:13:17;;;;;;;23.27;19.63;;;3.90;99.90;;;;;;5117271;28;20198;-78
2022/09/23 06:15:44;;;;;;;24.43;19.07;;;4.00;99.90;;;;;;5116686;28;20219;-77
2022/09/23 06:18:11;;;;;;;24.17;19.77;;;4.10;99.90;;;;;;5116480;28;20206;-78
2022/09/23 06:20:38;;;;;;;21.33;18.23;;;4.20;99.90;;;;;;5116870;28;20255;-79
2022/09/23 06:23:09;;;;;;;23.90;17.90;;;4.30;99.90;;;;;;5116449;28;20225;-77
2022/09/23 06:25:37;;;;;;;21.83;17.57;;;4.40;99.90;;;;;;5116486;28;20248;-78
2022/09/23 06:28:03;;;;;;;20.53;16.90;;;4.50;99.90;;;;;;5116415;27;20234;-80
2022/09/23 06:30:30;;;;;;;21.73;17.17;;;4.60;99.90;;;;;;5116455;28;20229;-79
2022/09/23 06:32:57;;;;;;;26.07;17.70;;;4.70;99.90;;;;;;5116461;28;20531;-79
2022/09/23 06:35:26;;;;;;;23.00;17.60;;;4.80;99.90;;;;;;5116208;28;20221;-80
2022/09/23 06:37:53;;;;;;;25.37;18.00;;;5.00;99.90;;;;;;5116248;28;20203;-82
2022/09/23 06:40:22;;;;;;;21.17;17.50;;;5.10;99.90;;;;;;5116239;27;20194;-81
2022/09/23 06:42:56;;;;;;;19.83;17.73;;;5.20;99.90;;;;;;5116215;28;20224;-82
2022/09/23 06:45:22;;;;;;;20.40;17.37;;;5.40;99.90;;;;;;5116338;28;20208;-82
2022/09/23 06:47:55;;;;;;;22.10;17.50;;;5.60;99.90;;;;;;5116340;28;20643;-82
2022/09/23 06:50:22;;;;;;;23.27;17.53;;;5.70;99.90;;;;;;5116365;28;20222;-80
2022/09/23 06:52:51;;;;;;;23.77;17.33;;;5.90;99.90;;;;;;5115919;28;20264;-82
2022/09/23 06:55:17;;;;;;;22.50;17.73;;;6.10;99.90;;;;;;5115632;28;20233;-77
2022/09/23 06:57:45;;;;;;;18.77;16.87;;;6.20;99.90;;;;;;5115637;28;20643;-79
2022/09/23 07:00:13;;;;;;;20.67;17.30;;;6.40;99.90;;;;;;5115802;28;20256;-79
2022/09/23 07:02:40;;;;;;;25.23;18.07;;;6.60;99.90;;;;;;5115538;28;20655;-78
2022/09/23 07:05:08;;;;;;;21.90;18.67;;;6.80;99.90;;;;;;5115618;28;20720;-77
2022/09/23 07:07:35;;;;;;;21.53;16.90;;;6.90;99.90;;;;;;5115643;28;20627;-79
2022/09/23 07:10:02;;;;;;;19.47;16.60;;;7.20;99.90;;;;;;5115565;28;20199;-79
2022/09/23 07:12:28;;;;;;;18.93;16.07;;;7.30;99.90;;;;;;5115605;28;20197;-79
2022/09/23 07:14:56;;;;;;;18.27;15.73;;;7.50;99.90;;;;;;5115459;28;20203;-79
2022/09/23 07:17:23;;;;;;;27.43;15.80;;;7.70;99.90;;;;;;5115496;28;20234;-78
2022/09/23 07:19:51;;;;;;;18.07;15.20;;;7.80;99.90;;;;;;5114492;28;20554;-79
2022/09/23 07:22:17;;;;;;;16.50;13.47;;;8.00;99.90;;;;;;5115192;28;20234;-79
2022/09/23 07:24:45;;;;;;;16.70;14.70;;;8.30;99.90;;;;;;5115284;28;20565;-78
2022/09/23 07:27:13;;;;;;;16.97;15.27;;;8.50;99.90;;;;;;5115168;28;20659;-79
2022/09/23 07:29:39;;;;;;;18.33;15.53;;;8.70;99.90;;;;;;5114092;28;20191;-78
2022/09/23 07:32:07;;;;;;;15.77;13.80;;;8.90;99.90;;;;;;5115279;28;20699;-78
2022/09/23 07:34:35;;;;;;;14.50;13.03;;;9.10;99.90;;;;;;5115035;28;20229;-79
2022/09/23 07:37:02;;;;;;;13.93;12.43;;;9.20;99.90;;;;;;5115077;28;20699;-78
2022/09/23 07:39:28;;;;;;;14.50;12.80;;;9.50;99.90;;;;;;5115308;28;20202;-78
2022/09/23 07:41:55;;;;;;;14.00;11.23;;;9.60;99.90;;;;;;5115037;28;20192;-79
2022/09/23 07:44:24;;;;;;;12.73;11.27;;;9.80;99.90;;;;;;5114792;28;20192;-78
2022/09/23 07:46:50;;;;;;;11.67;10.50;;;10.00;99.90;;;;;;5114823;28;20298;-79
2022/09/23 07:49:19;;;;;;;12.67;10.00;;;10.30;99.90;;;;;;5114722;28;20200;-78
2022/09/23 07:51:45;;;;;;;10.00;9.00;;;10.50;99.90;;;;;;5114543;28;20191;-78
2022/09/23 07:54:15;;;;;;;10.37;9.03;;;10.60;99.90;;;;;;5114744;28;20230;-79
2022/09/23 07:56:43;;;;;;;10.83;9.73;;;10.70;99.90;;;;;;5114732;28;20231;-79
2022/09/23 07:59:14;;;;;;;10.00;9.00;;;11.00;99.90;;;;;;5115057;28;20273;-78
2022/09/23 08:01:43;;;;;;;11.27;9.20;;;11.30;99.90;;;;;;5114971;28;20200;-79
2022/09/23 08:04:13;;;;;;;11.13;9.57;;;11.50;99.90;;;;;;5121916;28;20291;-79
2022/09/23 08:06:42;;;;;;;9.57;8.60;;;11.70;99.90;;;;;;5135434;28;20225;-78
2022/09/23 08:09:09;;;;;;;9.23;8.27;;;12.00;99.90;;;;;;5128495;28;20195;-79
2022/09/23 08:11:40;;;;;;;10.10;9.10;;;12.10;99.90;;;;;;5127070;28;20247;-78
2022/09/23 08:14:07;;;;;;;10.20;7.47;;;12.30;99.90;;;;;;5126756;28;20220;-79
2022/09/23 08:16:34;;;;;;;8.90;7.57;;;12.50;99.90;;;;;;5128769;28;20250;-78
2022/09/23 08:19:00;;;;;;;10.53;7.70;;;12.50;99.90;;;;;;5120617;28;20199;-78
2022/09/23 08:21:27;;;;;;;8.80;7.90;;;12.70;99.90;;;;;;5114068;28;20236;-79
2022/09/23 08:23:55;;;;;;;8.83;7.57;;;13.00;99.90;;;;;;5114060;28;20196;-78
2022/09/23 08:26:22;;;;;;;9.10;7.37;;;13.10;99.90;;;;;;5113903;28;20195;-78
2022/09/23 08:28:49;;;;;;;7.50;6.73;;;13.30;99.90;;;;;;5113717;28;20207;-79
2022/09/23 08:31:16;;;;;;;7.83;6.93;;;13.60;99.90;;;;;;5113260;28;20192;-78
2022/09/23 08:33:42;;;;;;;8.67;6.57;;;13.70;99.90;;;;;;5114016;28;20198;-78
2022/09/23 08:36:09;;;;;;;8.70;6.93;;;13.90;99.90;;;;;;5113706;28;20211;-79
2022/09/23 08:38:35;;;;;;;10.97;7.60;;;14.00;99.90;;;;;;5113586;28;20236;-78
2022/09/23 08:41:12;;;;;;;7.23;6.50;;;14.20;99.90;;;;;;5113579;28;20192;-79
2022/09/23 08:43:42;;;;;;;7.33;6.50;;;14.40;99.90;;;;;;5113397;28;20252;-77
2022/09/23 08:46:10;;;;;;;6.90;6.20;;;14.80;99.90;;;;;;5113955;28;20203;-79
2022/09/23 08:48:42;;;;;;;6.73;6.13;;;15.00;99.90;;;;;;5113514;28;20200;-79
2022/09/23 08:51:14;;;;;;;6.83;6.00;;;15.30;99.90;;;;;;5113195;28;20659;-79
2022/09/23 08:53:42;;;;;;;6.90;6.20;;;15.50;99.90;;;;;;5113707;28;20628;-78
2022/09/23 08:56:14;;;;;;;5.40;4.87;;;15.40;99.90;;;;;;5113379;28;20254;-79
2022/09/23 08:58:54;;;;;;;6.33;5.53;;;15.40;99.90;;;;;;5113406;28;20252;-79
2022/09/23 09:01:26;;;;;;;5.70;4.70;;;15.80;99.90;;;;;;5113814;28;20291;-79
2022/09/23 09:03:55;;;;;;;5.15;4.65;;;15.90;99.90;;;;;;5113358;28;20550;-79
2022/09/23 09:06:26;;;;;;;6.10;4.70;;;15.40;99.90;;;;;;5113532;28;20658;-79
2022/09/23 09:08:57;;;;;;;4.53;4.13;;;15.40;99.90;;;;;;5113292;28;20249;-79
2022/09/23 09:11:34;;;;;;;6.97;4.17;;;15.20;99.90;;;;;;5113871;28;20195;-79
2022/09/23 09:14:11;;;;;;;5.97;4.27;;;15.30;99.90;;;;;;5113521;28;20225;-79
2022/09/23 09:16:55;;;;;;;6.20;3.90;;;15.70;99.90;;;;;;5113333;28;20714;-79
2022/09/23 09:19:42;;;;;;;7.38;4.13;;;16.20;99.90;;;;;;5113105;28;20532;-79
2022/09/23 09:22:23;;;;;;;5.45;3.95;;;16.40;99.90;;;;;;5113052;28;20235;-80
2022/09/23 09:24:50;;;;;;;4.65;4.05;;;16.40;99.90;;;;;;5113356;28;20613;-79
2022/09/23 09:27:19;;;;;;;4.32;3.92;;;16.70;99.90;;;;;;5112932;28;20601;-78
2022/09/23 09:29:48;;;;;;;7.03;4.47;;;17.10;99.90;;;;;;5113016;28;20252;-78
2022/09/23 09:32:23;;;;;;;5.35;4.18;;;17.40;99.90;;;;;;5112936;28;20585;-78
2022/09/23 09:34:55;;;;;;;4.53;4.07;;;18.00;99.90;;;;;;5113068;28;20252;-78
2022/09/23 09:37:29;;;;;;;5.35;4.03;;;17.80;99.90;;;;;;5113044;28;20636;-78
2022/09/23 09:39:55;;;;;;;4.65;4.25;;;17.40;99.90;;;;;;5113030;28;20200;-79
2022/09/23 09:42:37;;;;;;;4.15;3.75;;;17.30;99.90;;;;;;5114500;28;20655;-77
2022/09/23 09:45:12;;;;;;;4.47;4.07;;;17.30;99.90;;;;;;5117349;28;20204;-78
2022/09/23 09:47:46;;;;;;;6.47;4.30;;;17.10;99.90;;;;;;5117095;28;20256;-78
2022/09/23 09:50:20;;;;;;;4.72;4.20;;;17.30;99.90;;;;;;5117610;28;20540;-78
2022/09/23 09:52:47;;;;;;;4.88;3.70;;;17.70;99.90;;;;;;5116824;28;20655;-79
2022/09/23 09:55:27;;;;;;;8.60;4.22;;;18.50;99.90;;;;;;5117130;28;20199;-78
2022/09/23 09:58:00;;;;;;;4.18;3.88;;;19.00;99.90;;;;;;5116996;28;20219;-78
2022/09/23 10:00:42;;;;;;;4.20;3.90;;;19.10;99.90;;;;;;5116677;28;20257;-78
2022/09/23 10:03:25;;;;;;;4.90;4.40;;;18.50;99.90;;;;;;5116622;28;20695;-79
2022/09/23 10:05:55;;;;;;;4.90;4.40;;;18.10;99.90;;;;;;5116562;28;20728;-79
2022/09/23 10:08:26;;;;;;;6.50;4.10;;;18.60;99.90;;;;;;5116636;28;20241;-79
2022/09/23 10:11:00;;;;;;;6.15;4.50;;;19.00;99.90;;;;;;5116622;28;20550;-79
2022/09/23 10:13:29;;;;;;;7.18;4.18;;;19.10;99.90;;;;;;5116448;28;20248;-77
2022/09/23 10:15:57;;;;;;;6.38;4.18;;;19.70;99.90;;;;;;5116814;28;20192;-79
2022/09/23 10:18:29;;;;;;;5.40;4.90;;;20.00;99.90;;;;;;5116759;28;20276;-79
2022/09/23 10:21:02;;;;;;;4.88;4.47;;;19.50;98.80;;;;;;5116369;28;20674;-77
2022/09/23 10:23:32;;;;;;;5.45;4.43;;;19.30;98.70;;;;;;5116363;28;20200;-78
2022/09/23 10:26:02;;;;;;;4.88;4.47;;;19.70;99.20;;;;;;5116254;28;20192;-78
2022/09/23 10:28:41;;;;;;;6.22;5.63;;;19.60;96.90;;;;;;5116447;28;20204;-78
2022/09/23 10:31:10;;;;;;;5.85;5.35;;;19.10;98.50;;;;;;5116797;28;20199;-78
2022/09/23 10:33:42;;;;;;;5.38;4.90;;;19.40;98.80;;;;;;5116085;28;20252;-78
2022/09/23 10:36:11;;;;;;;5.03;4.63;;;19.60;98.50;;;;;;5116254;28;20291;-79
2022/09/23 10:38:38;;;;;;;5.60;5.10;;;20.10;97.30;;;;;;5116998;28;20244;-79
2022/09/23 10:47:04;;;;;;;5.53;4.88;;;20.10;96.10;;;;;;5072260;28;20195;-78
2022/09/23 10:49:51;;;;;;;5.38;4.90;;;20.60;96.90;;;;;;5116431;28;20196;-78
2022/09/23 10:52:35;;;;;;;5.70;4.32;;;21.40;95.80;;;;;;5128168;28;20195;-78
2022/09/23 10:55:11;;;;;;;6.57;4.80;;;21.20;94.40;;;;;;5124500;28;20286;-76
2022/09/23 10:57:51;;;;;;;4.68;4.28;;;20.60;94.10;;;;;;5118167;28;20219;-78
2022/09/23 11:00:22;;;;;;;4.35;3.85;;;21.20;93.00;;;;;;5115561;28;20268;-79
2022/09/23 11:03:20;;;;;;;4.45;4.05;;;21.30;92.10;;;;;;5115725;28;20195;-79
2022/09/23 11:05:55;;;;;;;4.70;4.18;;;19.70;92.00;;;;;;5094661;28;20653;-79
2022/09/23 11:08:37;;;;;;;4.88;3.45;;;20.30;92.80;;;;;;5115565;28;20240;-78
2022/09/23 11:11:13;;;;;;;4.32;3.90;;;20.20;91.90;;;;;;5115244;28;20654;-78
2022/09/23 11:13:51;;;;;;;4.28;3.88;;;20.60;90.50;;;;;;5115329;28;20256;-78
2022/09/23 11:16:30;;;;;;;4.40;4.00;;;20.80;91.80;;;;;;5115274;28;20658;-79
2022/09/23 11:19:21;;;;;;;4.50;4.10;;;21.10;90.90;;;;;;5115414;28;20203;-78
2022/09/23 11:22:07;;;;;;;3.50;3.20;;;20.20;90.40;;;;;;5115014;28;20281;-79
2022/09/23 11:24:59;;;;;;;4.32;3.20;;;21.10;86.80;;;;;;5115380;28;20196;-79
2022/09/23 11:27:37;;;;;;;3.60;3.33;;;21.50;84.20;;;;;;5115226;28;20196;-78
2022/09/23 11:30:10;;;;;;;4.45;3.80;;;21.80;82.10;;;;;;5115095;28;20196;-78
2022/09/23 11:33:01;;;;;;;3.60;3.30;;;22.20;81.80;;;;;;5114952;28;20227;-78
2022/09/23 11:35:31;;;;;;;3.20;3.00;;;23.20;79.80;;;;;;5115050;28;20200;-79
2022/09/23 11:38:05;;;;;;;3.40;3.10;;;23.90;75.90;;;;;;5114859;28;20280;-78
2022/09/23 11:40:34;;;;;;;3.47;2.38;;;23.50;75.30;;;;;;5114835;28;20505;-78
2022/09/23 11:43:06;;;;;;;3.70;3.40;;;24.50;70.00;;;;;;5114707;28;20268;-78
2022/09/23 11:45:35;;;;;;;3.55;2.25;;;24.90;65.90;;;;;;5115182;28;20274;-78
2022/09/23 11:48:08;;;;;;;2.50;2.30;;;25.50;63.90;;;;;;5114650;28;20642;-78
2022/09/23 11:50:39;;;;;;;4.43;3.47;;;26.20;60.40;;;;;;5114663;28;20191;-78
2022/09/23 11:53:12;;;;;;;3.00;2.70;;;26.80;55.80;;;;;;5115011;28;20195;-78
2022/09/23 11:55:46;;;;;;;10.73;7.82;;;26.20;56.10;;;;;;5114630;28;20256;-77
2022/09/23 11:58:18;;;;;;;2.88;2.65;;;26.60;53.90;;;;;;5114520;28;20782;-79
2022/09/23 12:00:50;;;;;;;2.67;2.40;;;27.50;51.80;;;;;;5114567;28;20204;-79
2022/09/23 12:03:24;;;;;;;3.08;2.20;;;28.10;50.60;;;;;;5114931;28;20668;-77
2022/09/23 12:05:58;;;;;;;3.20;2.50;;;28.90;48.60;;;;;;5114090;28;20203;-76
2022/09/23 12:08:28;;;;;;;3.67;2.10;;;28.20;46.70;;;;;;5114832;28;20198;-77
2022/09/23 12:11:01;;;;;;;2.53;2.33;;;28.60;43.20;;;;;;5114848;28;20201;-77
2022/09/23 12:13:39;;;;;;;2.20;2.00;;;28.50;43.10;;;;;;5114485;28;20244;-78
2022/09/23 12:16:24;;;;;;;2.67;2.30;;;29.00;42.40;;;;;;5114161;28;20199;-78
2022/09/23 12:19:03;;;;;;;3.15;2.10;;;27.10;40.70;;;;;;5114125;28;20230;-77
2022/09/23 12:22:05;;;;;;;2.38;1.92;;;27.00;42.00;;;;;;5114090;28;20233;-79
2022/09/23 12:24:50;;;;;;;2.97;2.65;;;28.60;40.40;;;;;;5113951;28;20654;-78
2022/09/23 12:27:24;;;;;;;3.25;2.17;;;28.30;38.80;;;;;;5113167;28;20209;-79
2022/09/23 12:29:56;;;;;;;2.28;2.15;;;28.80;40.90;;;;;;5114134;28;20203;-77
2022/09/23 12:32:23;;;;;;;2.78;2.35;;;30.60;39.60;;;;;;5114063;28;20281;-79
2022/09/23 12:34:53;;;;;;;2.33;2.13;;;31.10;35.90;;;;;;5114042;28;20205;-78
2022/09/23 12:37:26;;;;;;;3.05;1.85;;;32.10;35.80;;;;;;5114005;28;20681;-78
2022/09/23 12:39:54;;;;;;;2.20;2.00;;;32.40;33.80;;;;;;5114016;28;20676;-78
2022/09/23 12:42:23;;;;;;;2.38;2.17;;;31.40;32.40;;;;;;5113809;28;20195;-78
2022/09/23 12:44:50;;;;;;;2.40;2.20;;;32.40;31.10;;;;;;5113689;28;20355;-78
2022/09/23 12:47:37;;;;;;;3.42;1.90;;;33.30;31.10;;;;;;5113695;28;20256;-78
2022/09/23 12:50:41;;;;;;;3.63;2.00;;;34.20;30.00;;;;;;5113534;28;20642;-78
2022/09/23 12:53:50;;;;;;;2.10;2.00;;;34.70;27.80;;;;;;5113869;28;20195;-78
2022/09/23 12:56:20;;;;;;;2.72;1.95;;;34.50;26.40;;;;;;5113667;28;20260;-78
2022/09/23 12:59:25;;;;;;;2.28;1.85;;;33.50;26.00;;;;;;5113328;28;20713;-78
2022/09/23 13:01:53;;;;;;;2.75;1.98;;;34.60;26.50;;;;;;5030993;28;20625;-78
2022/09/23 13:07:17;;;;;;;2.15;1.95;;;35.40;23.50;;;;;;5113805;28;20202;-78
2022/09/23 13:09:47;;;;;;;2.35;1.88;;;35.90;24.80;;;;;;5114030;28;20203;-78
2022/09/23 13:12:19;;;;;;;1.70;1.60;;;35.00;23.20;;;;;;5113339;28;20553;-78